Time;durP1;ratioP1;P1;durP2;ratioP2;P2;SDS_P1;SDS_P2;PMS_P1;PMS_P2;Temp;Humidity;BMP_temperature;BMP_pressure;BME280_temperature;BME280_humidity;BME280_pressure;Samples;Min_cycle;Max_cycle;Signal;HPM_P1;HPM_P2
2021/06/25 00:01:36;;;;;;;19.77;9.40;;;;;;;17.06;81.37;100330.27;127009;1095;22795;-81
2021/06/25 00:04:07;;;;;;;19.75;8.90;;;;;;;17.04;81.33;100344.89;127077;1095;22951;-80
2021/06/25 00:06:40;;;;;;;21.75;9.80;;;;;;;17.02;80.93;100343.88;127088;1095;26242;-80
2021/06/25 00:09:12;;;;;;;20.10;9.50;;;;;;;17.01;81.27;100339.54;127166;1096;22875;-81
2021/06/25 00:11:43;;;;;;;19.60;9.55;;;;;;;17.00;81.38;100344.41;127137;1096;22820;-81
2021/06/25 00:14:20;;;;;;;19.10;9.23;;;;;;;16.99;81.03;100343.63;127093;1095;22796;-81
2021/06/25 00:16:52;;;;;;;16.65;9.15;;;;;;;17.01;81.03;100333.90;126993;1096;23855;-81
2021/06/25 00:19:24;;;;;;;22.50;9.60;;;;;;;16.99;81.13;100348.50;127031;1096;22805;-81
2021/06/25 00:21:56;;;;;;;16.70;9.10;;;;;;;16.97;81.75;100342.61;126923;1095;22893;-81
2021/06/25 00:24:27;;;;;;;20.43;9.20;;;;;;;16.94;81.47;100335.98;127010;1096;22780;-81
2021/06/25 00:26:59;;;;;;;21.25;9.55;;;;;;;16.91;81.69;100325.73;126955;1095;22776;-81
2021/06/25 00:29:30;;;;;;;19.10;9.20;;;;;;;16.88;82.05;100328.84;126960;1095;22837;-81
2021/06/25 00:32:01;;;;;;;19.30;8.40;;;;;;;16.84;82.44;100331.91;126966;1096;22951;-81
2021/06/25 00:34:32;;;;;;;17.87;8.77;;;;;;;16.80;82.11;100325.03;126938;1096;25797;-81
2021/06/25 00:37:04;;;;;;;22.30;9.10;;;;;;;16.77;81.83;100315.56;126965;1096;22939;-81
2021/06/25 00:39:35;;;;;;;20.50;8.75;;;;;;;16.77;81.89;100315.56;126956;1095;23313;-80
2021/06/25 00:42:12;;;;;;;19.00;8.50;;;;;;;16.72;81.95;100307.88;126947;1095;22864;-81
2021/06/25 00:44:43;;;;;;;17.73;8.17;;;;;;;16.69;82.09;100308.16;127029;1096;22792;-81
2021/06/25 00:47:15;;;;;;;18.05;8.90;;;;;;;16.65;82.01;100305.63;127070;1095;22850;-81
2021/06/25 00:49:47;;;;;;;17.27;8.20;;;;;;;16.61;81.89;100305.14;126952;1095;24710;-80
2021/06/25 00:52:20;;;;;;;19.15;8.95;;;;;;;16.59;82.26;100290.02;127074;1096;22794;-80
2021/06/25 00:54:54;;;;;;;21.45;9.10;;;;;;;16.57;82.01;100289.77;127011;1096;25752;-81
2021/06/25 00:57:25;;;;;;;19.50;8.45;;;;;;;16.56;81.86;100280.55;126981;1096;22871;-80
2021/06/25 00:59:56;;;;;;;17.60;9.05;;;;;;;16.59;82.18;100271.06;127040;1096;23890;-80
2021/06/25 01:02:28;;;;;;;25.33;10.00;;;;;;;16.61;82.14;100268.49;127096;1095;22878;-81
2021/06/25 01:04:59;;;;;;;21.75;9.55;;;;;;;16.62;82.10;100264.38;127006;1095;22810;-81
2021/06/25 01:07:34;;;;;;;21.90;9.35;;;;;;;16.68;82.20;100267.93;127036;1095;27368;-81
2021/06/25 01:10:07;;;;;;;20.05;9.60;;;;;;;16.71;82.17;100264.08;127006;1095;22796;-80
2021/06/25 01:12:41;;;;;;;25.45;9.70;;;;;;;16.72;82.09;100265.59;127174;1095;26474;-81
2021/06/25 01:15:14;;;;;;;19.80;8.95;;;;;;;16.74;81.76;100260.20;126959;1096;22875;-80
2021/06/25 01:17:47;;;;;;;18.20;9.35;;;;;;;16.76;81.72;100245.61;127002;1094;24145;-80
2021/06/25 01:20:23;;;;;;;24.10;10.55;;;;;;;16.75;81.70;100207.41;127019;1096;22857;-81
2021/06/25 01:22:55;;;;;;;24.90;11.27;;;;;;;16.74;82.13;100208.69;127002;1096;22873;-80
2021/06/25 01:25:29;;;;;;;20.20;8.30;;;;;;;16.74;82.19;100203.82;127016;1096;22799;-81
2021/06/25 01:28:04;;;;;;;21.30;9.60;;;;;;;16.76;81.88;100186.41;127011;1096;23343;-81
2021/06/25 01:30:38;;;;;;;17.75;9.15;;;;;;;16.77;81.79;100187.92;127267;1096;22802;-81
2021/06/25 01:33:12;;;;;;;24.70;11.50;;;;;;;16.75;81.84;100171.54;127077;1096;22874;-80
2021/06/25 01:35:46;;;;;;;23.75;10.70;;;;;;;16.75;81.90;100162.30;127144;1096;22944;-80
2021/06/25 01:38:19;;;;;;;20.75;9.25;;;;;;;16.76;82.17;100161.03;127007;1094;27178;-80
2021/06/25 01:40:51;;;;;;;19.30;9.55;;;;;;;16.76;81.93;100152.58;127078;1096;22854;-80
2021/06/25 01:43:26;;;;;;;21.75;10.20;;;;;;;16.73;82.22;100151.56;127033;1096;22807;-80
2021/06/25 01:45:57;;;;;;;21.00;9.80;;;;;;;16.69;81.77;100151.08;127174;1096;22861;-80
2021/06/25 01:48:29;;;;;;;21.05;9.85;;;;;;;16.65;81.90;100150.59;127042;1095;22784;-80
2021/06/25 01:51:00;;;;;;;19.60;9.95;;;;;;;16.65;81.88;100161.10;126972;1096;22810;-80
2021/06/25 01:53:31;;;;;;;19.13;9.50;;;;;;;16.61;81.78;100183.94;127117;1096;22780;-81
2021/06/25 01:56:04;;;;;;;19.75;9.00;;;;;;;16.51;81.91;100199.60;126995;1095;22807;-81
2021/06/25 01:58:35;;;;;;;22.65;8.90;;;;;;;16.40;82.11;100188.38;127029;1095;22834;-81
2021/06/25 02:01:11;;;;;;;19.00;9.20;;;;;;;16.31;82.16;100197.13;127033;1096;26293;-81
2021/06/25 02:03:44;;;;;;;24.40;9.90;;;;;;;16.23;82.53;100204.59;127051;1096;25581;-80
2021/06/25 02:06:17;;;;;;;19.23;9.07;;;;;;;16.15;82.70;100203.61;127163;1096;22835;-81
2021/06/25 02:08:48;;;;;;;15.85;7.35;;;;;;;16.10;83.12;100212.83;127115;1095;22830;-81
2021/06/25 02:11:22;;;;;;;19.85;8.10;;;;;;;16.06;83.25;100220.78;126975;1095;22845;-80
2021/06/25 02:13:53;;;;;;;18.25;7.45;;;;;;;16.01;83.11;100225.17;126964;1095;23019;-81
2021/06/25 02:16:25;;;;;;;17.55;7.85;;;;;;;15.97;83.54;100227.47;127096;1095;22762;-81
2021/06/25 02:18:56;;;;;;;17.25;8.50;;;;;;;15.94;83.24;100234.15;127062;1096;22726;-81
2021/06/25 02:21:27;;;;;;;14.60;7.10;;;;;;;15.95;83.31;100241.30;127155;1094;23419;-81
2021/06/25 02:23:58;;;;;;;21.00;7.65;;;;;;;15.95;83.34;100246.19;127030;1095;22768;-81
2021/06/25 02:26:31;;;;;;;19.75;7.55;;;;;;;15.97;83.32;100243.62;127086;1095;22793;-81
2021/06/25 02:29:02;;;;;;;18.30;8.07;;;;;;;15.98;83.71;100251.54;126999;1096;22834;-81
2021/06/25 02:31:34;;;;;;;17.55;7.70;;;;;;;16.00;83.21;100253.83;127075;1096;27213;-81
2021/06/25 02:34:05;;;;;;;17.23;7.53;;;;;;;16.00;83.20;100262.28;127147;1096;23388;-80
2021/06/25 02:36:36;;;;;;;19.80;8.50;;;;;;;16.00;83.52;100265.87;127008;1096;25797;-81
2021/06/25 02:39:08;;;;;;;16.73;8.07;;;;;;;15.99;83.43;100272.77;127037;1094;22801;-82
2021/06/25 02:41:39;;;;;;;20.75;8.80;;;;;;;16.00;83.25;100274.31;127063;1095;22958;-81
2021/06/25 02:44:10;;;;;;;16.80;7.35;;;;;;;15.99;83.53;100275.58;127122;1096;23267;-81
2021/06/25 02:46:41;;;;;;;19.50;8.15;;;;;;;15.99;83.55;100277.66;127033;1095;22815;-81
2021/06/25 02:49:13;;;;;;;17.00;8.17;;;;;;;15.98;83.66;100274.06;127142;1096;24438;-81
2021/06/25 02:51:44;;;;;;;18.25;7.50;;;;;;;15.98;83.44;100276.88;127112;1096;22873;-82
2021/06/25 02:54:16;;;;;;;21.55;8.10;;;;;;;15.97;83.94;100275.33;127114;1095;22944;-81
2021/06/25 02:56:47;;;;;;;17.70;7.60;;;;;;;15.98;83.74;100284.55;127195;1096;22915;-81
2021/06/25 02:59:19;;;;;;;17.40;8.55;;;;;;;16.01;83.50;100289.17;127117;1096;25893;-81
2021/06/25 03:01:50;;;;;;;19.50;9.30;;;;;;;16.04;83.61;100285.31;127127;1096;26296;-82
2021/06/25 03:04:21;;;;;;;16.90;8.05;;;;;;;16.07;83.88;100304.00;127209;1095;22846;-81
2021/06/25 03:06:53;;;;;;;19.13;8.83;;;;;;;16.10;83.55;100286.83;127063;1095;22829;-81
2021/06/25 03:09:25;;;;;;;16.50;8.05;;;;;;;16.10;83.75;100288.88;127116;1096;22938;-81
2021/06/25 03:11:56;;;;;;;18.05;7.85;;;;;;;16.08;83.60;100288.63;127102;1095;22765;-82
2021/06/25 03:14:27;;;;;;;21.75;8.30;;;;;;;16.02;83.84;100302.72;126981;1095;22810;-81
2021/06/25 03:16:59;;;;;;;17.10;8.10;;;;;;;15.99;83.73;100311.45;127087;1095;22807;-81
2021/06/25 03:19:30;;;;;;;17.15;8.20;;;;;;;15.95;84.01;100308.88;127100;1095;22848;-81
2021/06/25 03:22:01;;;;;;;19.30;7.30;;;;;;;15.93;83.78;100297.36;127258;1096;26487;-81
2021/06/25 03:24:32;;;;;;;15.35;7.70;;;;;;;15.91;83.70;100293.55;126972;1095;25996;-82
2021/06/25 03:27:04;;;;;;;19.35;7.80;;;;;;;15.90;83.99;100303.26;126957;1095;26369;-81
2021/06/25 03:29:36;;;;;;;20.40;8.80;;;;;;;15.90;83.94;100311.70;127205;1096;22943;-81
2021/06/25 03:32:08;;;;;;;19.40;8.15;;;;;;;15.94;84.35;100317.84;127191;1096;26258;-81
2021/06/25 03:34:39;;;;;;;15.85;8.25;;;;;;;15.94;84.30;100323.47;127066;1095;22799;-81
2021/06/25 03:37:11;;;;;;;17.95;7.35;;;;;;;15.91;84.09;100319.63;127086;1095;22821;-81
2021/06/25 03:39:42;;;;;;;16.50;8.70;;;;;;;15.90;84.20;100322.97;127120;1095;22958;-81
2021/06/25 03:42:13;;;;;;;16.60;7.95;;;;;;;15.85;84.38;100307.61;127162;1096;23036;-81
2021/06/25 03:44:45;;;;;;;17.20;7.50;;;;;;;15.86;84.25;100308.38;127146;1095;22807;-81
2021/06/25 03:47:16;;;;;;;16.77;6.73;;;;;;;15.87;84.41;100313.49;127195;1095;22841;-81
2021/06/25 03:49:47;;;;;;;18.80;8.00;;;;;;;15.89;84.27;100313.75;127095;1096;22839;-81
2021/06/25 03:52:18;;;;;;;17.10;8.30;;;;;;;15.91;84.41;100319.63;127045;1096;22817;-81
2021/06/25 03:54:49;;;;;;;18.05;7.20;;;;;;;15.93;84.17;100333.95;127043;1096;26407;-81
2021/06/25 03:57:21;;;;;;;23.27;7.30;;;;;;;15.96;84.52;100329.35;127125;1095;24442;-81
2021/06/25 03:59:52;;;;;;;15.87;6.77;;;;;;;15.96;84.18;100327.31;127169;1096;26304;-81
2021/06/25 04:02:23;;;;;;;12.75;6.05;;;;;;;15.98;84.38;100336.02;127443;1096;23327;-82
2021/06/25 04:05:09;;;;;;;14.35;5.75;;;;;;;16.02;84.15;100338.55;127199;1096;22835;-80
2021/06/25 04:07:42;;;;;;;12.75;5.35;;;;;;;16.06;83.88;100333.43;127261;1096;26408;-80
2021/06/25 04:10:14;;;;;;;19.55;6.05;;;;;;;16.08;83.75;100328.83;127134;1095;22759;-80
2021/06/25 04:12:48;;;;;;;15.83;5.37;;;;;;;16.12;83.83;100317.28;126699;1096;23472;-80
2021/06/25 04:15:19;;;;;;;12.90;4.65;;;;;;;16.15;83.55;100310.63;126539;1096;22784;-80
2021/06/25 04:17:50;;;;;;;14.20;5.20;;;;;;;16.14;83.43;100318.31;126615;1095;22837;-80
2021/06/25 04:20:22;;;;;;;9.80;4.70;;;;;;;16.19;83.46;100313.95;127039;1094;22948;-80
2021/06/25 04:22:53;;;;;;;10.35;3.80;;;;;;;16.21;83.29;100308.57;127018;1094;22726;-80
2021/06/25 04:25:25;;;;;;;10.60;4.50;;;;;;;16.23;83.10;100314.45;127098;1095;22728;-80
2021/06/25 04:27:56;;;;;;;10.80;4.25;;;;;;;16.24;83.46;100310.36;127071;1095;24171;-80
2021/06/25 04:30:28;;;;;;;11.30;4.50;;;;;;;16.28;83.20;100315.73;127069;1095;22817;-81
2021/06/25 04:33:01;;;;;;;15.05;4.75;;;;;;;16.27;83.50;100317.77;127006;1095;25876;-80
2021/06/25 04:35:33;;;;;;;12.50;4.55;;;;;;;16.30;83.11;100315.97;127031;1095;22810;-80
2021/06/25 04:38:04;;;;;;;12.75;4.60;;;;;;;16.33;82.94;100323.38;126957;1096;22824;-80
2021/06/25 04:40:38;;;;;;;10.05;4.70;;;;;;;16.34;83.02;100333.38;127048;1096;27178;-80
2021/06/25 04:43:11;;;;;;;11.95;5.25;;;;;;;16.37;83.34;100332.33;127102;1095;25797;-80
2021/06/25 04:45:43;;;;;;;14.30;6.10;;;;;;;16.39;83.06;100332.61;126946;1095;23494;-80
2021/06/25 04:48:15;;;;;;;11.80;5.25;;;;;;;16.39;83.33;100330.53;127037;1096;22783;-80
2021/06/25 04:50:47;;;;;;;10.50;5.20;;;;;;;16.38;83.19;100333.88;127056;1096;23320;-80
2021/06/25 04:53:18;;;;;;;12.37;5.20;;;;;;;16.33;82.89;100332.60;126992;1095;22895;-80
2021/06/25 04:55:51;;;;;;;12.45;5.70;;;;;;;16.28;82.80;100336.22;126946;1096;22777;-80
2021/06/25 04:58:27;;;;;;;12.57;5.53;;;;;;;16.24;83.38;100335.72;127022;1095;23081;-80
2021/06/25 05:00:59;;;;;;;11.33;4.90;;;;;;;16.23;82.97;100330.58;127033;1096;22837;-80
2021/06/25 05:03:33;;;;;;;11.60;5.00;;;;;;;16.22;83.16;100334.70;127040;1095;22813;-80
2021/06/25 05:06:04;;;;;;;11.90;5.90;;;;;;;16.19;83.46;100340.08;127068;1096;22784;-80
2021/06/25 05:08:37;;;;;;;13.85;5.40;;;;;;;16.16;82.98;100341.09;126914;1096;22799;-80
2021/06/25 05:11:08;;;;;;;14.30;4.95;;;;;;;16.15;83.37;100348.02;127124;1096;22788;-81
2021/06/25 05:13:40;;;;;;;14.70;5.80;;;;;;;16.12;83.36;100360.30;126838;1096;22788;-83
2021/06/25 05:16:12;;;;;;;14.50;5.50;;;;;;;16.10;83.60;100360.05;126963;1096;25888;-80
2021/06/25 05:18:43;;;;;;;11.50;5.55;;;;;;;16.09;83.47;100357.76;127176;1095;22834;-82
2021/06/25 05:21:15;;;;;;;13.15;5.85;;;;;;;16.08;83.78;100368.25;126676;1096;27233;-80
2021/06/25 05:23:46;;;;;;;16.27;6.07;;;;;;;16.06;83.40;100368.00;126832;1096;24496;-81
2021/06/25 05:26:18;;;;;;;12.55;4.80;;;;;;;16.07;83.52;100377.22;126986;1096;22790;-82
2021/06/25 05:28:49;;;;;;;10.17;4.67;;;;;;;16.09;83.58;100369.80;126732;1096;22807;-82
2021/06/25 05:31:20;;;;;;;12.60;4.90;;;;;;;16.11;83.63;100366.46;126907;1095;22817;-82
2021/06/25 05:33:52;;;;;;;11.25;4.85;;;;;;;16.12;83.79;100365.16;126856;1096;24470;-81
2021/06/25 05:36:23;;;;;;;13.50;5.70;;;;;;;16.12;83.70;100373.61;126834;1095;24441;-79
2021/06/25 05:38:55;;;;;;;12.00;5.15;;;;;;;16.13;83.62;100369.53;126482;1095;27234;-80
2021/06/25 05:41:26;;;;;;;9.85;3.80;;;;;;;16.15;83.26;100366.97;126898;1096;24312;-86
2021/06/25 05:43:58;;;;;;;10.35;4.05;;;;;;;16.17;83.24;100373.63;127431;1095;22929;-84
2021/06/25 05:46:30;;;;;;;8.97;2.97;;;;;;;16.21;82.67;100384.63;127205;1096;22883;-81
2021/06/25 05:49:01;;;;;;;8.10;2.90;;;;;;;16.23;82.93;100387.69;126955;1096;23508;-81
2021/06/25 05:51:32;;;;;;;7.45;3.00;;;;;;;16.26;82.70;100385.90;127085;1095;22814;-82
2021/06/25 05:54:04;;;;;;;7.60;2.75;;;;;;;16.29;82.60;100384.86;126971;1096;22748;-81
2021/06/25 05:56:35;;;;;;;9.10;2.40;;;;;;;16.34;82.52;100395.36;127126;1096;27238;-82
2021/06/25 05:59:07;;;;;;;6.20;2.40;;;;;;;16.38;82.53;100396.64;127074;1095;22950;-84
2021/06/25 06:01:40;;;;;;;7.40;2.40;;;;;;;16.45;82.12;100386.89;126999;1096;22883;-82
2021/06/25 06:04:11;;;;;;;9.20;3.10;;;;;;;16.53;82.14;100390.73;126959;1094;26137;-82
2021/06/25 06:06:42;;;;;;;6.95;2.65;;;;;;;16.60;81.96;100390.19;126856;1095;26249;-83
2021/06/25 06:09:14;;;;;;;9.85;3.50;;;;;;;16.70;81.90;100382.98;126860;1096;22783;-81
2021/06/25 06:11:45;;;;;;;8.20;3.30;;;;;;;16.81;81.76;100397.81;126979;1095;26975;-81
2021/06/25 06:14:17;;;;;;;7.95;2.80;;;;;;;16.91;81.48;100382.13;126760;1096;22820;-83
2021/06/25 06:16:48;;;;;;;8.75;3.10;;;;;;;17.01;81.36;100384.66;126787;1096;22832;-81
2021/06/25 06:19:19;;;;;;;8.95;2.95;;;;;;;17.05;80.79;100385.90;127184;1095;22954;-82
2021/06/25 06:33:10;;;;;;;12.58;3.73;;;;;;;17.22;79.73;100392.23;126860;1095;22810;-82
2021/06/25 06:35:42;;;;;;;6.63;2.40;;;;;;;17.25;79.91;100396.07;126836;1096;25831;-82
2021/06/25 06:38:13;;;;;;;8.30;2.80;;;;;;;17.33;79.89;100394.22;126823;1095;22788;-82
2021/06/25 06:40:45;;;;;;;6.20;2.43;;;;;;;17.39;79.24;100394.95;126859;1095;22901;-82
2021/06/25 06:43:16;;;;;;;7.65;2.75;;;;;;;17.40;79.64;100388.78;126890;1096;23164;-82
2021/06/25 06:45:47;;;;;;;8.75;3.20;;;;;;;17.47;79.72;100393.10;126935;1096;24339;-82
2021/06/25 06:48:19;;;;;;;7.00;2.30;;;;;;;17.55;79.13;100399.75;126830;1096;22761;-81
2021/06/25 06:50:50;;;;;;;7.57;2.83;;;;;;;17.62;78.53;100388.67;126880;1095;27362;-82
2021/06/25 06:53:21;;;;;;;7.73;2.93;;;;;;;17.67;78.83;100387.11;126857;1095;25291;-81
2021/06/25 06:55:52;;;;;;;7.70;3.40;;;;;;;17.81;78.57;100385.97;126829;1095;22780;-84
2021/06/25 06:58:24;;;;;;;8.40;2.70;;;;;;;17.98;79.02;100374.53;126855;1095;27236;-83
2021/06/25 07:00:56;;;;;;;6.33;2.40;;;;;;;18.15;76.82;100363.81;126986;1096;26388;-82
2021/06/25 07:03:27;;;;;;;8.47;2.50;;;;;;;18.22;77.08;100357.59;126827;1095;22807;-82
2021/06/25 07:05:58;;;;;;;8.00;2.90;;;;;;;18.24;77.26;100355.00;126934;1096;22955;-83
2021/06/25 07:08:29;;;;;;;10.50;3.20;;;;;;;18.23;76.89;100362.70;127072;1096;22778;-83
2021/06/25 07:11:01;;;;;;;6.93;2.57;;;;;;;18.27;77.36;100368.08;126887;1096;23389;-81
2021/06/25 07:13:33;;;;;;;9.60;3.00;;;;;;;18.29;76.62;100363.41;126869;1096;22811;-82
2021/06/25 07:16:05;;;;;;;6.40;2.25;;;;;;;18.26;75.97;100370.14;126900;1095;22821;-83
2021/06/25 07:18:37;;;;;;;7.93;2.77;;;;;;;18.24;76.41;100371.95;126875;1095;23285;-82
2021/06/25 07:21:11;;;;;;;6.07;2.50;;;;;;;18.18;75.91;100366.38;126995;1096;22793;-82
2021/06/25 07:23:42;;;;;;;7.00;2.15;;;;;;;18.09;76.03;100369.53;126844;1096;22898;-84
2021/06/25 07:26:13;;;;;;;8.55;3.00;;;;;;;18.02;76.73;100375.00;126915;1096;22869;-82
2021/06/25 07:28:45;;;;;;;7.80;2.97;;;;;;;17.93;75.88;100387.41;126857;1096;25903;-84
2021/06/25 07:31:16;;;;;;;9.45;2.73;;;;;;;17.82;76.52;100386.71;127096;1095;28051;-83
2021/06/25 07:33:47;;;;;;;7.95;3.13;;;;;;;17.82;77.12;100389.53;127147;1095;25797;-80
2021/06/25 07:36:20;;;;;;;7.48;2.75;;;;;;;17.89;76.93;100392.57;126884;1096;26296;-82
2021/06/25 07:38:51;;;;;;;9.05;2.95;;;;;;;18.01;77.20;100385.53;127001;1096;25983;-82
2021/06/25 07:41:22;;;;;;;5.57;2.20;;;;;;;18.12;76.24;100388.27;127099;1094;22854;-84
2021/06/25 07:43:53;;;;;;;6.40;2.70;;;;;;;18.16;75.50;100387.97;127065;1096;22751;-82
2021/06/25 07:46:25;;;;;;;5.50;2.08;;;;;;;18.19;75.41;100387.66;127076;1095;26306;-82
2021/06/25 07:48:56;;;;;;;6.67;2.40;;;;;;;18.22;75.11;100366.84;126864;1095;23190;-82
2021/06/25 07:51:27;;;;;;;6.40;2.33;;;;;;;18.24;74.77;100363.48;127011;1096;22796;-82
2021/06/25 07:53:59;;;;;;;6.13;2.30;;;;;;;18.22;75.17;100347.06;126962;1096;22808;-85
2021/06/25 07:56:30;;;;;;;5.37;1.80;;;;;;;18.22;75.42;100368.89;126963;1096;27227;-82
2021/06/25 07:59:02;;;;;;;6.47;2.30;;;;;;;18.22;75.34;100374.55;126956;1096;22802;-82
2021/06/25 08:01:33;;;;;;;6.20;2.38;;;;;;;18.21;74.60;100375.83;127105;1095;22891;-82
2021/06/25 08:04:04;;;;;;;5.55;2.00;;;;;;;18.22;74.61;100366.06;126901;1096;26258;-81
2021/06/25 08:06:36;;;;;;;7.68;2.38;;;;;;;18.29;75.00;100360.59;126961;1094;22807;-82
2021/06/25 08:09:08;;;;;;;5.67;2.47;;;;;;;18.45;75.27;100353.27;127043;1095;22802;-82
2021/06/25 08:11:39;;;;;;;9.23;1.90;;;;;;;18.56;74.57;100368.03;126975;1095;22808;-82
2021/06/25 08:14:10;;;;;;;6.95;2.08;;;;;;;18.61;74.24;100362.84;126939;1096;27211;-81
2021/06/25 08:16:42;;;;;;;6.55;1.90;;;;;;;18.62;73.85;100370.04;126982;1095;22755;-81
2021/06/25 08:19:13;;;;;;;8.20;2.45;;;;;;;18.62;74.55;100390.61;126928;1095;22780;-81
2021/06/25 08:21:44;;;;;;;6.80;2.63;;;;;;;18.64;74.11;100399.33;127025;1095;22874;-83
2021/06/25 08:24:16;;;;;;;5.68;2.58;;;;;;;18.58;74.30;100399.36;126869;1096;22765;-82
2021/06/25 08:26:48;;;;;;;6.78;2.13;;;;;;;18.54;73.74;100396.07;126537;1095;22927;-82
2021/06/25 08:29:20;;;;;;;7.08;2.63;;;;;;;18.51;74.01;100405.63;126880;1096;22844;-81
2021/06/25 08:31:52;;;;;;;6.55;2.78;;;;;;;18.47;74.50;100405.16;126960;1095;22846;-82
2021/06/25 08:34:24;;;;;;;8.93;2.35;;;;;;;18.47;74.53;100393.08;127068;1095;24183;-81
2021/06/25 08:36:55;;;;;;;11.03;2.25;;;;;;;18.53;74.45;100396.61;126874;1096;23575;-82
2021/06/25 08:39:27;;;;;;;9.58;2.70;;;;;;;18.56;74.13;100387.05;126919;1095;22764;-81
2021/06/25 08:42:01;;;;;;;9.05;2.88;;;;;;;18.62;74.29;100393.44;127544;1095;24571;-82
2021/06/25 08:44:37;;;;;;;7.88;2.70;;;;;;;18.59;73.92;100394.48;127349;1094;23414;-82
2021/06/25 08:47:09;;;;;;;6.45;2.40;;;;;;;18.60;74.07;100398.08;127219;1095;22783;-82
2021/06/25 08:49:47;;;;;;;6.00;2.83;;;;;;;18.58;73.51;100392.19;127255;1095;22868;-81
2021/06/25 08:52:18;;;;;;;6.15;2.13;;;;;;;18.58;73.59;100399.36;127238;1096;22779;-82
2021/06/25 08:54:50;;;;;;;5.35;2.28;;;;;;;18.60;73.34;100417.88;127070;1095;22820;-82
2021/06/25 08:57:21;;;;;;;7.73;2.53;;;;;;;18.64;73.91;100412.69;127123;1095;22799;-80
2021/06/25 08:59:53;;;;;;;7.50;2.60;;;;;;;18.64;73.34;100424.77;127000;1096;22819;-81
2021/06/25 09:02:25;;;;;;;6.18;2.50;;;;;;;18.63;73.18;100420.40;127037;1096;22772;-81
2021/06/25 09:04:56;;;;;;;5.67;2.43;;;;;;;18.64;73.08;100427.60;127013;1095;22858;-81
2021/06/25 09:07:42;;;;;;;5.95;2.05;;;;;;;18.71;73.55;100421.33;127027;1095;26312;-78
2021/06/25 09:10:15;;;;;;;7.17;2.37;;;;;;;18.74;72.68;100425.17;127014;1095;22808;-82
2021/06/25 09:13:03;;;;;;;7.28;2.45;;;;;;;18.76;73.02;100414.86;127141;1095;22827;-81
2021/06/25 09:15:35;;;;;;;5.58;2.10;;;;;;;18.80;72.51;100406.07;126961;1096;22806;-81
2021/06/25 09:18:09;;;;;;;5.38;1.83;;;;;;;18.75;72.53;100413.31;127061;1096;27163;-81
2021/06/25 09:20:43;;;;;;;9.83;2.98;;;;;;;18.72;72.63;100408.73;127074;1096;22876;-81
2021/06/25 09:23:16;;;;;;;5.33;1.95;;;;;;;18.71;72.56;100414.91;127343;1096;22845;-80
2021/06/25 09:25:58;;;;;;;5.90;2.28;;;;;;;18.71;72.57;100418.51;127221;1096;22854;-80
2021/06/25 09:28:34;;;;;;;4.68;1.78;;;;;;;18.70;72.66;100411.33;127215;1096;23712;-82
2021/06/25 09:31:14;;;;;;;6.30;1.80;;;;;;;18.72;72.38;100419.28;127091;1096;22819;-81
2021/06/25 09:33:50;;;;;;;8.17;2.23;;;;;;;18.65;72.52;100420.63;127100;1095;23626;-81
2021/06/25 09:36:26;;;;;;;6.03;2.05;;;;;;;18.61;72.31;100408.86;127215;1095;22829;-81
2021/06/25 09:39:02;;;;;;;7.63;2.30;;;;;;;18.58;72.66;100412.73;127047;1095;26012;-83
2021/06/25 09:41:35;;;;;;;6.57;2.10;;;;;;;18.55;72.25;100408.15;127140;1096;22768;-80
2021/06/25 09:44:11;;;;;;;6.90;1.90;;;;;;;18.55;73.01;100416.63;126640;1095;24487;-81
2021/06/25 09:46:43;;;;;;;6.10;1.70;;;;;;;18.63;72.63;100414.74;126956;1096;22807;-80
2021/06/25 09:49:15;;;;;;;8.23;1.83;;;;;;;18.71;72.58;100424.16;126508;1096;22805;-80
2021/06/25 09:51:57;;;;;;;8.68;2.28;;;;;;;18.74;72.55;100417.45;126529;1096;22801;-81
2021/06/25 09:54:29;;;;;;;7.73;2.20;;;;;;;18.78;72.12;100403.01;127077;1096;26024;-82
2021/06/25 09:57:06;;;;;;;6.38;2.20;;;;;;;18.82;72.42;100411.95;127047;1095;22877;-82
2021/06/25 10:02:32;;;;;;;5.30;1.98;;;;;;;19.02;71.33;100420.70;126472;1097;24274;-82
2021/06/25 10:05:13;;;;;;;5.75;2.10;;;;;;;19.13;71.84;100431.13;127144;1096;26325;-83
2021/06/25 10:07:51;;;;;;;;;;;;;;;19.24;71.82;100422.50;126866;1097;27466;-81
2021/06/25 10:10:23;;;;;;;7.05;1.90;;;;;;;19.26;71.31;100420.64;126707;1096;21473;-82
2021/06/25 10:12:55;;;;;;;6.20;2.20;;;;;;;19.29;71.52;100415.98;126411;1097;22899;-81
2021/06/25 10:15:27;;;;;;;6.83;1.88;;;;;;;19.31;71.17;100414.16;126573;1096;23545;-81
2021/06/25 10:18:00;;;;;;;4.65;1.43;;;;;;;19.36;70.64;100409.75;126516;1096;23824;-81
2021/06/25 10:20:32;;;;;;;5.03;1.50;;;;;;;19.41;70.81;100422.30;126524;1096;22820;-81
2021/06/25 10:23:07;;;;;;;5.00;1.43;;;;;;;19.38;70.35;100426.96;126468;1096;22913;-80
2021/06/25 10:25:40;;;;;;;5.38;1.30;;;;;;;19.41;70.65;100428.70;126823;1097;26605;-82
2021/06/25 10:28:12;;;;;;;4.55;1.08;;;;;;;19.42;70.40;100413.27;126685;1096;22877;-80
2021/06/25 10:30:44;;;;;;;3.25;1.33;;;;;;;19.37;70.19;100407.69;126576;1096;26271;-81
2021/06/25 10:33:16;;;;;;;3.60;1.45;;;;;;;19.28;70.50;100403.14;126983;1097;22809;-81
2021/06/25 10:35:51;;;;;;;5.83;1.20;;;;;;;19.23;70.20;100406.80;126901;1097;22823;-81
2021/06/25 10:38:28;;;;;;;4.70;1.65;;;;;;;19.20;70.24;100416.38;126741;1097;23395;-82
2021/06/25 10:41:01;;;;;;;6.00;1.70;;;;;;;19.13;70.67;100409.26;126868;1096;22811;-81
2021/06/25 10:43:44;;;;;;;7.43;1.58;;;;;;;19.10;70.52;100413.14;126998;1095;22807;-81
2021/06/25 10:46:36;;;;;;;6.10;1.33;;;;;;;19.10;69.89;100418.03;126978;1095;22864;-80
2021/06/25 10:49:13;;;;;;;4.85;1.48;;;;;;;19.03;70.43;100418.66;127114;1096;22821;-82
2021/06/25 10:51:45;;;;;;;7.43;1.78;;;;;;;19.04;70.89;100408.84;126996;1096;27891;-81
2021/06/25 10:54:19;;;;;;;6.80;2.03;;;;;;;19.13;70.23;100405.66;127005;1095;22813;-81
2021/06/25 10:57:08;;;;;;;5.30;1.70;;;;;;;19.17;70.50;100409.72;126899;1096;22820;-80
2021/06/25 10:59:48;;;;;;;7.05;1.60;;;;;;;19.30;70.40;100421.09;127022;1095;22807;-80
2021/06/25 11:02:40;;;;;;;4.10;1.33;;;;;;;19.48;70.10;100419.61;126928;1096;25903;-79
2021/06/25 11:05:34;;;;;;;4.60;1.68;;;;;;;19.65;69.52;100417.30;126893;1095;22780;-80
2021/06/25 11:08:22;;;;;;;6.18;1.55;;;;;;;19.76;69.09;100414.28;126867;1096;22796;-80
2021/06/25 11:10:56;;;;;;;5.10;1.50;;;;;;;19.93;69.13;100406.28;126882;1095;22823;-81
2021/06/25 11:13:29;;;;;;;3.75;1.45;;;;;;;20.08;69.22;100411.45;126961;1096;22741;-80
2021/06/25 11:16:04;;;;;;;4.45;1.48;;;;;;;20.26;69.37;100404.97;126905;1096;27151;-80
2021/06/25 11:18:44;;;;;;;3.93;1.33;;;;;;;20.46;68.92;100406.43;126909;1096;22912;-81
2021/06/25 11:21:16;;;;;;;9.53;1.93;;;;;;;20.60;68.73;100405.90;126894;1095;22811;-81
2021/06/25 11:23:48;;;;;;;6.38;1.88;;;;;;;20.69;68.06;100402.61;127019;1095;22840;-81
2021/06/25 11:26:27;;;;;;;10.70;2.23;;;;;;;20.80;67.03;100401.63;126971;1095;22868;-80
2021/06/25 11:29:09;;;;;;;11.08;2.35;;;;;;;20.85;67.20;100403.60;127321;1095;22868;-81
2021/06/25 11:31:41;;;;;;;6.75;2.33;;;;;;;20.93;67.26;100410.91;127418;1095;23565;-80
2021/06/25 11:34:29;;;;;;;7.40;2.40;;;;;;;21.00;66.88;100403.81;127220;1096;23540;-81
2021/06/25 11:37:00;;;;;;;6.85;2.78;;;;;;;21.00;65.43;100398.14;127128;1096;22864;-80
2021/06/25 11:39:36;;;;;;;7.43;2.70;;;;;;;20.95;66.65;100391.27;127255;1095;27823;-81
2021/06/25 11:42:10;;;;;;;9.40;2.63;;;;;;;20.92;66.45;100398.02;127232;1096;22829;-80
2021/06/25 11:44:44;;;;;;;7.18;2.60;;;;;;;20.88;66.44;100399.66;127190;1096;22962;-82
2021/06/25 11:47:19;;;;;;;7.57;2.20;;;;;;;20.83;66.23;100400.55;127184;1095;22854;-82
2021/06/25 11:49:59;;;;;;;7.38;2.68;;;;;;;20.74;66.32;100393.23;127187;1095;23646;-82
2021/06/25 11:52:33;;;;;;;7.13;2.20;;;;;;;20.70;66.21;100397.70;127117;1096;22877;-82
2021/06/25 11:55:08;;;;;;;8.35;2.95;;;;;;;20.56;65.89;100396.18;127135;1096;22825;-82